Time;durP1;ratioP1;P1;durP2;ratioP2;P2;SDS_P1;SDS_P2;PMS_P1;PMS_P2;Temp;Humidity;BMP_temperature;BMP_pressure;BME280_temperature;BME280_humidity;BME280_pressure;Samples;Min_cycle;Max_cycle;Signal;HPM_P1;HPM_P2
2022/01/05 00:00:31;;;;;;;9.88;2.63;;;;;;;2.92;86.30;100048.22;5084147;28;20050;-60
2022/01/05 00:02:57;;;;;;;12.25;3.05;;;;;;;2.89;86.40;100043.19;5085042;28;20024;-60
2022/01/05 00:05:22;;;;;;;13.40;2.80;;;;;;;2.86;86.16;100042.56;5084394;28;20513;-60
2022/01/05 00:07:47;;;;;;;11.65;2.90;;;;;;;2.84;86.22;100052.78;5083962;28;20048;-59
2022/01/05 00:10:13;;;;;;;12.32;2.92;;;;;;;2.83;86.32;100055.69;5083139;28;20036;-60
2022/01/05 00:12:38;;;;;;;12.93;2.80;;;;;;;2.81;86.09;100049.63;5083912;28;20904;-60
2022/01/05 00:15:04;;;;;;;10.48;2.95;;;;;;;2.79;86.20;100049.84;5082556;28;20032;-60
2022/01/05 00:17:29;;;;;;;10.13;2.75;;;;;;;2.78;85.74;100053.56;5084830;28;20036;-59
2022/01/05 00:19:55;;;;;;;10.90;2.53;;;;;;;2.77;86.02;100042.91;5084055;28;20698;-59
2022/01/05 00:22:20;;;;;;;19.08;3.35;;;;;;;2.78;85.73;100039.16;5083436;28;20032;-59
2022/01/05 00:24:46;;;;;;;15.60;3.08;;;;;;;2.71;85.39;100052.69;5083084;28;20089;-59
2022/01/05 00:27:11;;;;;;;10.43;3.00;;;;;;;2.68;85.48;100053.06;5083932;28;20024;-60
2022/01/05 00:29:37;;;;;;;17.40;3.40;;;;;;;2.70;85.05;100050.19;5083508;28;20687;-59
2022/01/05 00:32:02;;;;;;;11.65;2.78;;;;;;;2.65;85.37;100060.78;5083401;28;20032;-63
2022/01/05 00:34:27;;;;;;;15.07;3.25;;;;;;;2.70;84.67;100053.72;5083926;28;20050;-60
2022/01/05 00:36:52;;;;;;;12.07;3.25;;;;;;;2.59;84.58;100059.72;5083521;28;20020;-59
2022/01/05 00:39:18;;;;;;;15.65;2.97;;;;;;;2.57;84.87;100059.06;5083706;28;20101;-60
2022/01/05 00:41:43;;;;;;;14.15;3.08;;;;;;;2.52;85.17;100058.81;5082473;28;20035;-60
2022/01/05 00:44:08;;;;;;;16.35;4.07;;;;;;;2.53;84.92;100063.19;5083413;28;20032;-60
2022/01/05 00:46:34;;;;;;;13.93;3.17;;;;;;;2.48;84.79;100065.66;5083542;28;20028;-60
2022/01/05 00:48:59;;;;;;;12.07;2.95;;;;;;;2.44;84.45;100067.94;5083947;28;20039;-60
2022/01/05 00:51:24;;;;;;;11.60;3.28;;;;;;;2.42;84.77;100074.59;5083875;28;20016;-60
2022/01/05 00:53:49;;;;;;;12.88;3.42;;;;;;;2.42;84.41;100069.16;5082831;28;20081;-60
2022/01/05 00:56:15;;;;;;;10.68;3.55;;;;;;;2.41;84.33;100078.34;5081897;28;20036;-60
2022/01/05 00:58:41;;;;;;;16.98;3.40;;;;;;;2.36;84.40;100080.78;5081585;28;20039;-60
2022/01/05 01:01:06;;;;;;;15.40;3.88;;;;;;;2.32;84.32;100074.91;5082635;28;20047;-60
2022/01/05 01:03:32;;;;;;;16.63;3.40;;;;;;;2.30;84.50;100082.41;5083406;28;20082;-60
2022/01/05 01:06:00;;;;;;;14.02;3.70;;;;;;;2.38;84.11;100082.25;5083619;28;20035;-59
2022/01/05 01:08:26;;;;;;;16.75;3.95;;;;;;;2.26;84.95;100084.69;5081976;28;20044;-60
2022/01/05 01:10:52;;;;;;;10.52;3.28;;;;;;;2.25;84.79;100082.16;5082225;28;20024;-60
2022/01/05 01:13:17;;;;;;;9.93;3.03;;;;;;;2.18;84.90;100087.53;5083223;28;20032;-60
2022/01/05 01:15:44;;;;;;;12.73;3.10;;;;;;;2.14;85.08;100088.97;5083465;28;20021;-60
2022/01/05 01:18:09;;;;;;;11.60;3.58;;;;;;;2.12;85.13;100090.16;5082675;28;20020;-60
2022/01/05 01:20:35;;;;;;;13.90;4.10;;;;;;;2.10;85.10;100086.81;5083212;28;20077;-60
2022/01/05 01:23:00;;;;;;;10.55;3.55;;;;;;;2.07;85.61;100097.00;5083097;28;20036;-59
2022/01/05 01:25:26;;;;;;;13.50;3.22;;;;;;;2.04;85.40;100094.69;5081162;28;20085;-60
2022/01/05 01:27:51;;;;;;;17.75;3.75;;;;;;;2.02;85.34;100099.44;5083185;28;20115;-60
2022/01/05 01:30:16;;;;;;;14.00;3.45;;;;;;;2.01;85.22;100100.47;5082982;28;20036;-59
2022/01/05 01:32:41;;;;;;;16.05;3.92;;;;;;;2.01;84.80;100097.78;5083174;28;20028;-60
2022/01/05 01:35:08;;;;;;;13.35;3.97;;;;;;;1.96;85.21;100094.81;5082911;28;20032;-60
2022/01/05 01:37:33;;;;;;;14.30;3.42;;;;;;;1.99;84.86;100099.03;5083525;28;20062;-60
2022/01/05 01:39:58;;;;;;;15.02;3.35;;;;;;;1.96;85.04;100092.09;5082117;28;20024;-60
2022/01/05 01:42:24;;;;;;;16.42;4.38;;;;;;;1.97;84.40;100099.19;5081901;28;20066;-63
2022/01/05 01:44:49;;;;;;;18.05;3.40;;;;;;;2.04;83.74;100099.28;5074722;28;20463;-62
2022/01/05 01:47:14;;;;;;;12.90;3.30;;;;;;;2.02;84.12;100090.50;5070695;28;20536;-62
2022/01/05 01:49:41;;;;;;;12.38;3.65;;;;;;;2.07;83.37;100097.00;5087237;28;20040;-62
2022/01/05 01:52:07;;;;;;;12.90;3.65;;;;;;;1.97;84.12;100103.78;5086890;28;20090;-62
2022/01/05 01:54:35;;;;;;;15.27;3.60;;;;;;;1.91;84.84;100108.09;5086298;28;20024;-63
2022/01/05 01:57:01;;;;;;;;;;;;;;;1.94;85.20;100112.31;5087618;28;20077;-62
2022/01/05 01:59:26;;;;;;;9.38;3.08;;;;;;;1.87;84.27;100101.38;5086657;28;19916;-62
2022/01/05 02:01:52;;;;;;;17.88;3.65;;;;;;;1.80;85.04;100114.84;5086289;28;20028;-62
2022/01/05 02:04:17;;;;;;;19.10;4.25;;;;;;;1.77;84.80;100114.38;5085491;28;20020;-62
2022/01/05 02:06:42;;;;;;;14.45;3.90;;;;;;;1.86;83.63;100113.25;5086336;28;20036;-61
2022/01/05 02:09:08;;;;;;;14.60;3.70;;;;;;;1.74;84.77;100106.69;5086315;28;20031;-62
2022/01/05 02:11:37;;;;;;;13.40;3.15;;;;;;;1.67;85.53;100103.88;5085828;28;20032;-62
2022/01/05 02:14:02;;;;;;;12.23;3.50;;;;;;;1.67;85.15;100097.63;5086819;28;20035;-63
2022/01/05 02:16:32;;;;;;;12.70;3.75;;;;;;;1.71;84.36;100104.34;5086736;28;20024;-61
2022/01/05 02:18:59;;;;;;;10.35;4.25;;;;;;;1.64;84.63;100103.44;5086670;28;20352;-61
2022/01/05 02:21:30;;;;;;;14.02;3.17;;;;;;;1.64;84.97;100106.13;5086014;28;20102;-61
2022/01/05 02:23:56;;;;;;;12.40;3.83;;;;;;;1.56;85.48;100101.66;5086620;28;20391;-62
2022/01/05 02:26:21;;;;;;;11.85;3.45;;;;;;;1.60;84.88;100107.56;5085020;28;20020;-62
2022/01/05 02:28:46;;;;;;;14.00;4.03;;;;;;;1.60;84.32;100112.97;5086787;28;20028;-62
2022/01/05 02:31:12;;;;;;;13.00;4.07;;;;;;;1.59;84.22;100111.28;5085517;28;20385;-61
2022/01/05 02:33:40;;;;;;;13.80;4.18;;;;;;;1.64;83.98;100119.69;5086354;28;20047;-61
2022/01/05 02:36:06;;;;;;;17.00;3.80;;;;;;;1.52;84.18;100112.06;5085489;28;20024;-62
2022/01/05 02:38:31;;;;;;;12.50;3.00;;;;;;;1.53;84.35;100121.00;5086467;28;20536;-65
2022/01/05 02:40:56;;;;;;;12.88;3.47;;;;;;;1.47;84.56;100119.03;5085365;28;20034;-62
2022/01/05 02:43:22;;;;;;;13.52;4.22;;;;;;;1.55;83.80;100121.66;5085327;28;20077;-61
2022/01/05 02:45:47;;;;;;;15.77;4.57;;;;;;;1.45;84.55;100127.34;5086021;28;20048;-62
2022/01/05 02:48:13;;;;;;;15.52;4.13;;;;;;;1.41;84.54;100128.75;5085036;28;20040;-62
2022/01/05 02:50:38;;;;;;;14.98;3.63;;;;;;;1.36;85.02;100128.47;5085685;28;20134;-62
2022/01/05 02:53:04;;;;;;;15.68;3.60;;;;;;;1.33;85.24;100130.75;5086222;28;20039;-62
2022/01/05 02:55:29;;;;;;;10.98;3.17;;;;;;;1.36;84.85;100138.47;5088256;22;20027;-62
2022/01/05 02:57:54;;;;;;;12.68;3.40;;;;;;;1.36;84.20;100133.88;5046297;28;20032;-62
2022/01/05 03:00:19;;;;;;;15.63;3.30;;;;;;;1.41;83.58;100139.56;5046722;28;20655;-61
2022/01/05 03:02:45;;;;;;;15.27;3.33;;;;;;;1.52;82.88;100143.66;5045432;28;20112;-61
2022/01/05 03:05:11;;;;;;;12.30;3.75;;;;;;;1.36;83.96;100155.53;5048655;28;20020;-63
2022/01/05 03:07:39;;;;;;;11.45;2.60;;;;;;;1.34;84.09;100154.91;5053130;28;20029;-62
2022/01/05 03:10:09;;;;;;;10.80;3.92;;;;;;;1.29;84.33;100147.34;5062395;28;20032;-62
2022/01/05 03:12:37;;;;;;;14.48;2.83;;;;;;;1.22;85.17;100151.00;5063813;28;20028;-62
2022/01/05 03:15:04;;;;;;;20.08;3.88;;;;;;;1.26;84.71;100161.22;5055858;28;20447;-63
2022/01/05 03:17:29;;;;;;;12.02;3.20;;;;;;;1.16;85.09;100154.44;5046984;28;20025;-61
2022/01/05 03:19:54;;;;;;;13.82;3.53;;;;;;;1.17;85.21;100167.78;5065368;28;20056;-61
2022/01/05 03:22:20;;;;;;;17.25;2.90;;;;;;;1.18;84.99;100163.22;5050448;28;20141;-62
2022/01/05 03:24:45;;;;;;;10.43;3.05;;;;;;;1.27;83.94;100165.63;5044187;28;20017;-62
2022/01/05 03:27:10;;;;;;;19.73;4.15;;;;;;;1.23;83.72;100166.19;5049895;28;20025;-62
2022/01/05 03:29:35;;;;;;;12.15;3.63;;;;;;;1.28;82.87;100174.59;5045296;28;20945;-62
2022/01/05 03:32:01;;;;;;;16.17;3.60;;;;;;;1.36;82.39;100171.78;5061167;28;20020;-62
2022/01/05 03:34:27;;;;;;;16.33;3.67;;;;;;;1.32;83.12;100175.03;5065946;28;20029;-62
2022/01/05 03:36:54;;;;;;;11.75;3.50;;;;;;;1.29;82.95;100182.50;5062573;28;20036;-61
2022/01/05 03:39:20;;;;;;;11.75;3.05;;;;;;;1.39;82.36;100178.69;5046110;28;20119;-61
2022/01/05 03:41:45;;;;;;;12.82;2.67;;;;;;;1.38;82.28;100177.84;5056800;28;20589;-61
2022/01/05 03:44:11;;;;;;;14.00;3.15;;;;;;;1.53;81.73;100181.38;5045300;28;20055;-61
2022/01/05 03:46:36;;;;;;;13.02;4.07;;;;;;;1.47;81.78;100182.13;5048441;28;20109;-61
2022/01/05 03:49:02;;;;;;;15.10;4.10;;;;;;;1.58;81.73;100186.22;5053063;28;20036;-62
2022/01/05 03:51:27;;;;;;;13.88;3.25;;;;;;;1.57;81.70;100171.00;5065369;28;20025;-62
2022/01/05 03:53:53;;;;;;;14.73;4.22;;;;;;;1.61;80.88;100175.00;5058147;28;20024;-61
2022/01/05 03:56:18;;;;;;;15.45;3.30;;;;;;;1.55;80.98;100173.91;5042439;28;20047;-61
2022/01/05 03:58:44;;;;;;;18.13;3.13;;;;;;;1.59;80.87;100187.91;5049656;28;20029;-62
2022/01/05 04:01:09;;;;;;;17.67;3.15;;;;;;;1.55;81.79;100192.84;5058906;28;20524;-62
2022/01/05 04:03:35;;;;;;;21.88;4.20;;;;;;;1.45;81.51;100183.34;5064550;28;20102;-61
2022/01/05 04:06:00;;;;;;;14.20;3.42;;;;;;;1.43;81.98;100188.94;5054271;28;20021;-62
2022/01/05 04:08:25;;;;;;;10.43;3.30;;;;;;;1.38;82.28;100195.94;5043213;28;20028;-62
2022/01/05 04:10:50;;;;;;;15.82;3.35;;;;;;;1.30;82.83;100195.00;5043139;28;20418;-62
2022/01/05 04:13:16;;;;;;;13.82;3.25;;;;;;;1.30;82.37;100199.56;5059246;28;20025;-62
2022/01/05 04:15:41;;;;;;;15.10;3.22;;;;;;;1.23;83.00;100202.19;5056683;28;20039;-61
2022/01/05 04:18:07;;;;;;;14.10;3.65;;;;;;;1.37;82.20;100203.22;5051737;28;20028;-62
2022/01/05 04:20:32;;;;;;;11.75;3.55;;;;;;;1.23;83.31;100201.34;5053825;28;20029;-62
2022/01/05 04:22:58;;;;;;;12.88;4.22;;;;;;;1.16;83.75;100203.94;5044961;28;20025;-62
2022/01/05 04:25:24;;;;;;;16.10;3.88;;;;;;;1.11;83.91;100200.97;5042425;28;20386;-62
2022/01/05 04:27:49;;;;;;;15.55;3.50;;;;;;;1.12;83.90;100207.22;5043989;28;20131;-62
2022/01/05 04:30:15;;;;;;;14.90;3.42;;;;;;;1.13;83.86;100208.91;5043974;28;20098;-61
2022/01/05 04:32:40;;;;;;;13.27;3.50;;;;;;;1.27;83.14;100213.50;5055723;28;20107;-63
2022/01/05 04:35:06;;;;;;;14.02;3.88;;;;;;;1.13;83.86;100214.31;5063864;28;20020;-61
2022/01/05 04:37:32;;;;;;;13.93;3.25;;;;;;;1.14;83.98;100216.00;5053653;28;20021;-63
2022/01/05 04:39:58;;;;;;;16.65;4.85;;;;;;;1.16;83.96;100224.75;5043105;28;20090;-62
2022/01/05 04:42:24;;;;;;;18.60;3.85;;;;;;;1.16;84.11;100225.59;5051080;28;20032;-62
2022/01/05 04:44:50;;;;;;;14.98;3.75;;;;;;;1.23;83.83;100231.13;5045730;28;20025;-61
2022/01/05 04:47:15;;;;;;;19.02;4.30;;;;;;;1.24;84.18;100233.63;5049738;28;20382;-62
2022/01/05 04:49:40;;;;;;;12.75;3.17;;;;;;;1.27;84.52;100232.44;5063704;28;20085;-62
2022/01/05 04:52:06;;;;;;;13.38;4.25;;;;;;;1.41;84.04;100233.44;5058491;28;20032;-62
2022/01/05 04:54:31;;;;;;;15.98;3.60;;;;;;;1.55;83.25;100236.16;5043040;28;20055;-62
2022/01/05 04:56:57;;;;;;;17.55;3.50;;;;;;;1.61;82.86;100223.72;5043531;28;20107;-62
2022/01/05 04:59:22;;;;;;;16.27;3.40;;;;;;;1.58;83.46;100226.00;5063639;28;20490;-62
2022/01/05 05:01:47;;;;;;;14.70;3.67;;;;;;;1.63;83.62;100229.81;5048148;28;20510;-62
2022/01/05 05:04:13;;;;;;;16.42;3.85;;;;;;;1.73;82.64;100226.81;5045047;28;20041;-61
2022/01/05 05:06:38;;;;;;;13.38;3.22;;;;;;;1.75;82.91;100224.75;5026847;28;20037;-62
2022/01/05 05:09:03;;;;;;;16.30;3.20;;;;;;;1.79;82.70;100231.47;5042057;28;20531;-62
2022/01/05 05:11:29;;;;;;;15.02;3.55;;;;;;;1.77;82.66;100222.69;5050846;28;20020;-62
2022/01/05 05:13:54;;;;;;;20.08;3.80;;;;;;;1.84;82.71;100239.88;5051775;28;20033;-62
2022/01/05 05:16:19;;;;;;;16.40;4.07;;;;;;;1.85;82.77;100238.84;5026859;28;20356;-61
2022/01/05 05:18:45;;;;;;;19.20;3.70;;;;;;;1.84;83.38;100233.63;5048060;28;20505;-62
2022/01/05 05:21:10;;;;;;;12.07;3.33;;;;;;;1.92;82.64;100231.63;5062392;28;20386;-61
2022/01/05 05:23:35;;;;;;;18.73;3.83;;;;;;;1.91;82.82;100231.81;5060843;28;20025;-62
2022/01/05 05:26:00;;;;;;;17.00;3.38;;;;;;;1.90;83.18;100217.44;5042499;28;20437;-62
2022/01/05 05:28:26;;;;;;;15.52;2.90;;;;;;;1.99;83.23;100221.72;5043397;28;20079;-62
2022/01/05 05:30:51;;;;;;;12.70;3.28;;;;;;;1.93;83.34;100217.06;5045683;28;20044;-61
2022/01/05 05:33:16;;;;;;;19.90;4.53;;;;;;;1.97;83.25;100221.06;5061628;28;20028;-62
2022/01/05 05:35:42;;;;;;;17.00;3.42;;;;;;;2.02;82.83;100226.75;5063289;28;20040;-62
2022/01/05 05:38:08;;;;;;;17.02;3.47;;;;;;;1.96;83.21;100222.09;5045394;28;20033;-62
2022/01/05 05:40:34;;;;;;;19.58;3.47;;;;;;;2.01;83.49;100225.06;5041475;28;20033;-62
2022/01/05 05:43:01;;;;;;;20.15;3.35;;;;;;;2.03;83.71;100224.91;5053398;28;20017;-62
2022/01/05 05:45:27;;;;;;;13.70;3.38;;;;;;;2.13;83.42;100230.84;5043219;28;20049;-61
2022/01/05 05:47:52;;;;;;;16.30;3.50;;;;;;;2.06;84.42;100229.91;5058782;28;20021;-62
2022/01/05 05:50:17;;;;;;;14.27;3.80;;;;;;;2.10;84.20;100243.94;5048251;28;20049;-62
2022/01/05 05:52:43;;;;;;;19.08;3.70;;;;;;;2.21;83.23;100235.28;5046120;28;20079;-62
2022/01/05 05:55:08;;;;;;;22.80;4.82;;;;;;;2.17;83.80;100234.00;5051565;28;20092;-62
2022/01/05 05:57:33;;;;;;;12.70;3.67;;;;;;;2.19;84.27;100227.38;5057472;28;20049;-62
2022/01/05 05:59:59;;;;;;;19.58;3.83;;;;;;;2.29;83.45;100246.03;5044553;28;20144;-62
2022/01/05 06:02:24;;;;;;;16.85;3.72;;;;;;;2.26;83.64;100240.97;5045239;28;20036;-62
2022/01/05 06:04:49;;;;;;;13.93;3.60;;;;;;;2.30;83.54;100240.41;5043184;28;20021;-61
2022/01/05 06:07:14;;;;;;;17.10;3.53;;;;;;;2.25;84.01;100225.75;5045390;28;20494;-62
2022/01/05 06:09:40;;;;;;;16.50;3.83;;;;;;;2.30;83.68;100232.28;5042053;28;20025;-62
2022/01/05 06:12:05;;;;;;;18.65;3.53;;;;;;;2.33;83.68;100233.75;5060639;28;20050;-62
2022/01/05 06:14:31;;;;;;;19.17;3.75;;;;;;;2.30;83.49;100229.56;5052048;28;20029;-62
2022/01/05 06:16:56;;;;;;;18.15;3.60;;;;;;;2.17;84.74;100240.25;5042833;28;20009;-62
2022/01/05 06:19:21;;;;;;;14.52;3.35;;;;;;;2.23;84.47;100238.63;5051075;28;20437;-62
2022/01/05 06:21:47;;;;;;;16.35;4.25;;;;;;;2.23;84.63;100244.94;5045491;28;20434;-61
2022/01/05 06:24:12;;;;;;;14.88;3.65;;;;;;;2.18;85.10;100236.53;5048384;28;20030;-62
2022/01/05 06:26:38;;;;;;;18.52;4.18;;;;;;;2.33;84.46;100241.88;5062011;28;20461;-62
2022/01/05 06:29:03;;;;;;;15.65;3.55;;;;;;;2.34;84.23;100246.28;5057439;28;20036;-62
2022/01/05 06:31:29;;;;;;;14.95;3.67;;;;;;;2.37;84.67;100245.06;5043292;28;20682;-62
2022/01/05 06:33:54;;;;;;;20.52;3.67;;;;;;;2.42;84.39;100250.72;5049478;28;20060;-62
2022/01/05 06:36:19;;;;;;;17.08;3.65;;;;;;;2.44;84.47;100254.13;5065887;28;20379;-62
2022/01/05 06:38:44;;;;;;;16.60;3.90;;;;;;;2.45;84.40;100253.91;5058418;28;20040;-62
2022/01/05 06:41:10;;;;;;;12.82;2.88;;;;;;;2.53;83.57;100258.34;5045107;28;20357;-62
2022/01/05 06:43:35;;;;;;;17.35;3.88;;;;;;;2.51;84.10;100263.97;5056764;28;20072;-62
2022/01/05 06:46:00;;;;;;;17.73;3.83;;;;;;;2.63;83.63;100266.16;5066285;28;20040;-62
2022/01/05 06:48:26;;;;;;;16.10;3.97;;;;;;;2.59;84.07;100265.75;5060740;28;20065;-62
2022/01/05 06:50:51;;;;;;;21.02;4.25;;;;;;;2.60;84.12;100268.25;5046188;28;20044;-62
2022/01/05 06:53:16;;;;;;;20.27;3.83;;;;;;;2.60;84.84;100281.81;5059765;28;20360;-62
2022/01/05 06:55:41;;;;;;;16.45;3.78;;;;;;;2.64;84.96;100284.13;5047006;28;20376;-62
2022/01/05 06:58:07;;;;;;;25.10;4.30;;;;;;;2.67;84.75;100294.56;5045824;28;20069;-62
2022/01/05 07:00:32;;;;;;;20.13;3.85;;;;;;;2.77;84.07;100290.50;5051110;28;20458;-62
2022/01/05 07:02:58;;;;;;;16.05;3.38;;;;;;;2.76;84.55;100288.00;5054191;28;20424;-62
2022/01/05 07:05:24;;;;;;;14.98;3.50;;;;;;;2.75;84.36;100297.19;5051928;28;20185;-62
2022/01/05 07:07:50;;;;;;;16.27;4.22;;;;;;;2.76;84.82;100298.84;5056950;28;20410;-62
2022/01/05 07:10:16;;;;;;;19.55;4.18;;;;;;;2.79;84.79;100295.75;5050912;28;20123;-62
2022/01/05 07:12:41;;;;;;;15.00;4.10;;;;;;;2.83;84.34;100297.03;5065535;28;20086;-62
2022/01/05 07:15:07;;;;;;;14.95;3.80;;;;;;;2.94;83.86;100301.97;5048300;28;20033;-62
2022/01/05 07:17:33;;;;;;;16.10;3.78;;;;;;;2.95;83.97;100303.63;5044541;28;20140;-62
2022/01/05 07:19:59;;;;;;;20.15;4.05;;;;;;;2.98;84.14;100300.50;5060902;28;20670;-62
2022/01/05 07:22:24;;;;;;;16.73;4.97;;;;;;;3.07;83.91;100304.78;5048630;28;20064;-62
2022/01/05 07:24:50;;;;;;;16.42;3.85;;;;;;;3.02;83.67;100312.66;5044467;28;20439;-62
2022/01/05 07:27:15;;;;;;;23.13;5.35;;;;;;;3.05;83.38;100312.28;5056245;28;20020;-62
2022/01/05 07:29:40;;;;;;;15.55;4.13;;;;;;;3.05;83.96;100320.41;5065513;28;20489;-62
2022/01/05 07:32:06;;;;;;;15.63;4.10;;;;;;;3.09;83.90;100305.44;5046311;28;20029;-62
2022/01/05 07:34:31;;;;;;;14.65;3.38;;;;;;;3.33;82.08;100315.00;5053653;28;20048;-65
2022/01/05 07:36:57;;;;;;;18.63;4.10;;;;;;;3.32;82.65;100309.78;5065597;28;20493;-62
2022/01/05 07:39:22;;;;;;;15.60;4.22;;;;;;;3.45;81.42;100318.03;5053292;28;20033;-61
2022/01/05 07:41:47;;;;;;;16.90;4.60;;;;;;;3.44;82.29;100319.06;5061804;28;20033;-62
2022/01/05 07:44:12;;;;;;;19.70;4.82;;;;;;;3.40;82.04;100325.94;5053268;28;20060;-62
2022/01/05 07:46:38;;;;;;;15.05;3.10;;;;;;;3.40;82.17;100320.50;5048441;28;20253;-61
2022/01/05 07:49:05;;;;;;;16.63;3.80;;;;;;;3.45;82.08;100323.47;5026461;28;20395;-62
2022/01/05 07:51:30;;;;;;;20.60;4.78;;;;;;;3.48;82.12;100333.09;5059702;28;20028;-62
2022/01/05 07:53:56;;;;;;;17.40;3.85;;;;;;;3.51;82.14;100347.09;5063934;28;20027;-62
2022/01/05 07:56:21;;;;;;;14.57;3.67;;;;;;;3.66;81.14;100348.91;5044871;28;20045;-62
2022/01/05 07:58:48;;;;;;;16.65;4.60;;;;;;;3.66;81.30;100348.91;5044919;28;20036;-62
2022/01/05 08:01:15;;;;;;;18.45;5.40;;;;;;;3.66;81.77;100362.47;5044898;28;20098;-62
2022/01/05 08:03:40;;;;;;;14.20;3.50;;;;;;;3.71;80.96;100368.97;5045121;28;20028;-62
2022/01/05 08:06:05;;;;;;;20.77;4.88;;;;;;;3.81;80.21;100360.50;5045606;28;20467;-62
2022/01/05 08:08:31;;;;;;;19.05;5.35;;;;;;;3.71;80.76;100357.28;5026181;28;20071;-62
2022/01/05 08:10:57;;;;;;;16.70;4.53;;;;;;;3.80;80.62;100366.94;5058682;28;20033;-63
2022/01/05 08:13:24;;;;;;;16.70;4.10;;;;;;;3.80;80.93;100361.50;5060825;28;20020;-62
2022/01/05 08:15:49;;;;;;;19.65;4.05;;;;;;;3.76;80.82;100360.25;5044523;28;20033;-62
2022/01/05 08:18:14;;;;;;;17.63;4.78;;;;;;;3.74;81.01;100357.72;5043957;28;20056;-62
2022/01/05 08:20:40;;;;;;;16.88;4.30;;;;;;;3.75;81.49;100343.13;5044622;28;20028;-62
2022/01/05 08:23:05;;;;;;;9.93;3.40;;;;;;;3.95;80.24;100340.50;5044578;28;20051;-63
2022/01/05 08:25:30;;;;;;;17.85;4.45;;;;;;;3.80;80.70;100354.22;5043019;28;20021;-62
2022/01/05 08:27:56;;;;;;;19.23;3.90;;;;;;;3.90;79.76;100352.00;5043918;28;20090;-62
2022/01/05 08:30:23;;;;;;;14.38;3.13;;;;;;;3.94;79.44;100366.00;5043828;28;20033;-62
2022/01/05 08:32:51;;;;;;;17.20;4.07;;;;;;;3.78;80.29;100364.44;5043922;28;20022;-62
2022/01/05 08:35:18;;;;;;;21.60;5.28;;;;;;;3.74;80.89;100363.13;5044176;28;20032;-62
2022/01/05 08:37:46;;;;;;;19.75;4.82;;;;;;;3.75;80.60;100366.69;5045348;28;20029;-62
2022/01/05 08:40:13;;;;;;;14.55;3.08;;;;;;;3.76;80.54;100360.25;5042635;28;20589;-62
2022/01/05 08:42:39;;;;;;;18.08;4.40;;;;;;;3.77;80.70;100356.47;5044664;28;20032;-62
2022/01/05 08:45:05;;;;;;;13.93;3.80;;;;;;;3.83;80.49;100375.53;5043576;28;20033;-62
2022/01/05 08:47:31;;;;;;;24.85;4.22;;;;;;;3.94;80.12;100360.56;5044404;28;20170;-62
2022/01/05 08:49:56;;;;;;;18.70;4.40;;;;;;;4.00;80.06;100373.34;5044065;28;20531;-62
2022/01/05 08:52:22;;;;;;;15.77;3.95;;;;;;;4.09;80.12;100360.44;5057953;28;20097;-62
2022/01/05 08:54:47;;;;;;;12.73;3.67;;;;;;;4.44;78.95;100358.53;5042497;28;20033;-62
2022/01/05 08:57:14;;;;;;;17.42;3.53;;;;;;;4.85;78.42;100363.91;5043730;28;20041;-62
2022/01/05 08:59:40;;;;;;;16.15;3.47;;;;;;;5.23;76.35;100381.56;5043622;28;20036;-62
2022/01/05 09:02:05;;;;;;;15.75;4.38;;;;;;;5.42;75.54;100383.47;5056238;28;20589;-63
2022/01/05 09:04:30;;;;;;;19.45;3.38;;;;;;;5.46;75.36;100379.28;5063758;28;20111;-62
2022/01/05 09:06:56;;;;;;;16.00;3.78;;;;;;;5.22;75.73;100378.03;5051341;28;20041;-62
2022/01/05 09:09:21;;;;;;;17.65;4.00;;;;;;;5.13;76.06;100379.25;5042260;28;20399;-62
2022/01/05 09:11:47;;;;;;;17.48;4.05;;;;;;;4.86;77.23;100390.06;5044279;28;20029;-62
2022/01/05 09:14:12;;;;;;;13.35;3.47;;;;;;;5.01;76.91;100392.59;5043026;28;20226;-62
2022/01/05 09:16:38;;;;;;;19.10;3.78;;;;;;;4.64;78.85;100397.53;5034320;28;20083;-62
2022/01/05 09:19:04;;;;;;;13.77;3.33;;;;;;;4.61;79.64;100405.22;5046175;28;20032;-63
2022/01/05 09:21:29;;;;;;;14.52;3.78;;;;;;;4.36;81.92;100402.22;5042068;28;20106;-62
2022/01/05 09:23:55;;;;;;;17.33;3.90;;;;;;;4.48;81.38;100402.47;5042662;28;20057;-62
2022/01/05 09:26:20;;;;;;;21.08;4.03;;;;;;;4.36;82.61;100411.22;5023705;28;20114;-62
2022/01/05 09:28:45;;;;;;;15.60;4.68;;;;;;;4.35;82.78;100417.66;5041216;28;20091;-62
2022/01/05 09:31:12;;;;;;;13.25;3.95;;;;;;;4.35;83.27;100408.66;5042646;28;20480;-62
2022/01/05 09:33:37;;;;;;;19.80;4.30;;;;;;;4.49;82.53;100420.47;5043448;28;20028;-62
2022/01/05 09:36:10;;;;;;;16.58;4.45;;;;;;;4.58;81.25;100414.66;5041936;28;20112;-63
2022/01/05 09:44:09;;;;;;;24.23;4.45;;;;;;;4.45;82.49;100436.31;5057074;28;20038;-62
2022/01/05 09:46:55;;;;;;;17.20;3.08;;;;;;;4.38;82.39;100432.75;5042746;28;20072;-62
2022/01/05 09:49:33;;;;;;;12.77;3.33;;;;;;;4.43;81.90;100417.50;5042328;28;20124;-62
2022/01/05 09:52:04;;;;;;;20.20;4.80;;;;;;;4.29;82.83;100439.38;5041982;28;20021;-62
2022/01/05 09:54:29;;;;;;;21.98;4.40;;;;;;;4.35;82.43;100447.56;5030872;28;20025;-63
2022/01/05 09:56:57;;;;;;;13.18;3.70;;;;;;;4.42;82.36;100442.19;5042521;28;20040;-62
2022/01/05 09:59:22;;;;;;;16.63;3.67;;;;;;;4.57;82.10;100431.19;5041271;28;20021;-61
2022/01/05 10:01:47;;;;;;;16.17;3.78;;;;;;;4.36;83.70;100453.88;5043706;28;20506;-61
2022/01/05 10:04:14;;;;;;;22.20;4.10;;;;;;;4.43;83.07;100446.59;5042131;28;20121;-62
2022/01/05 10:06:40;;;;;;;19.67;3.78;;;;;;;4.39;83.68;100454.28;5040710;28;20446;-61
2022/01/05 10:09:06;;;;;;;13.10;4.00;;;;;;;4.49;83.11;100461.25;5045412;28;20098;-62
2022/01/05 10:11:32;;;;;;;23.23;4.85;;;;;;;4.49;83.80;100453.94;5045905;28;20055;-62
2022/01/05 10:13:57;;;;;;;18.42;4.05;;;;;;;4.64;83.04;100461.97;5046764;28;20464;-62
2022/01/05 10:16:24;;;;;;;18.63;4.32;;;;;;;4.80;83.11;100467.06;5037010;28;20021;-62
2022/01/05 10:18:49;;;;;;;19.20;3.92;;;;;;;5.01;82.16;100462.53;5045186;28;20459;-62
2022/01/05 10:21:15;;;;;;;15.50;3.40;;;;;;;5.25;81.06;100452.97;5045502;28;20103;-62
2022/01/05 10:23:49;;;;;;;20.58;4.97;;;;;;;5.18;80.98;100475.59;5045102;28;20033;-61
2022/01/05 10:26:18;;;;;;;17.15;4.03;;;;;;;5.17;80.26;100465.75;5042922;28;20359;-62
2022/01/05 10:28:45;;;;;;;15.73;4.00;;;;;;;5.10;80.51;100473.03;5046443;28;20059;-62
2022/01/05 10:31:37;;;;;;;25.98;4.63;;;;;;;5.04;80.70;100479.31;5039206;28;20108;-62
2022/01/05 10:34:18;;;;;;;17.63;4.78;;;;;;;4.89;81.36;100476.72;5040219;28;20139;-62
2022/01/05 10:36:46;;;;;;;17.85;3.40;;;;;;;4.93;81.50;100478.00;5045800;28;20086;-62
2022/01/05 10:39:12;;;;;;;15.88;3.58;;;;;;;4.93;81.16;100488.06;5045608;28;20048;-62
2022/01/05 10:41:39;;;;;;;14.40;3.92;;;;;;;5.05;81.70;100486.41;5045468;28;20836;-62
2022/01/05 10:44:14;;;;;;;21.98;4.28;;;;;;;5.28;80.01;100487.97;5046025;28;20017;-61
2022/01/05 10:46:46;;;;;;;17.90;4.55;;;;;;;5.42;79.72;100478.78;5045850;28;20391;-62
2022/01/05 10:49:32;;;;;;;12.25;2.92;;;;;;;5.71;78.96;100480.31;5046998;28;20040;-61
2022/01/05 10:52:20;;;;;;;18.48;4.10;;;;;;;6.34;76.35;100488.94;5047911;28;20025;-61
2022/01/05 10:54:46;;;;;;;14.65;3.58;;;;;;;6.18;75.85;100489.34;5024497;28;20076;-61
2022/01/05 10:57:13;;;;;;;16.17;3.03;;;;;;;5.99;77.43;100491.06;5045240;28;20348;-62
2022/01/05 10:59:43;;;;;;;16.65;3.10;;;;;;;5.87;76.98;100498.97;5045425;28;20429;-62
2022/01/05 11:02:31;;;;;;;18.17;3.65;;;;;;;5.65;78.23;100497.47;5045628;28;20032;-61
2022/01/05 11:05:11;;;;;;;15.48;3.08;;;;;;;5.47;79.33;100517.13;5040272;28;20080;-61
2022/01/05 11:07:38;;;;;;;21.15;5.07;;;;;;;5.50;79.02;100532.22;5045625;28;20029;-62
2022/01/05 11:10:07;;;;;;;14.95;3.60;;;;;;;5.38;79.59;100519.22;5044128;28;21922;-62
2022/01/05 11:12:33;;;;;;;22.30;4.43;;;;;;;5.54;78.93;100523.44;5045012;28;20104;-62
2022/01/05 11:15:31;;;;;;;18.00;3.33;;;;;;;5.70;78.76;100520.34;5046157;28;20332;-61
2022/01/05 11:18:14;;;;;;;17.02;3.30;;;;;;;5.70;78.92;100522.22;5041735;28;20028;-61
2022/01/05 11:21:01;;;;;;;14.57;3.47;;;;;;;5.66;78.71;100510.06;5025715;28;20427;-61
2022/01/05 11:23:28;;;;;;;15.35;3.33;;;;;;;5.79;78.68;100520.16;5042427;28;20029;-61
2022/01/05 11:25:56;;;;;;;20.20;4.13;;;;;;;5.73;79.74;100538.16;5045150;28;20186;-61
2022/01/05 11:28:23;;;;;;;17.98;3.30;;;;;;;5.85;79.29;100522.88;5028832;28;20243;-61